createdAt,value
2022-10-12T00:02:18.527Z,7.90
2022-10-12T00:09:03.941Z,7.90
2022-10-12T00:15:52.257Z,7.45
2022-10-12T00:22:37.755Z,9.90
2022-10-12T00:29:23.134Z,7.32
2022-10-12T00:36:22.279Z,7.68
2022-10-12T00:43:07.657Z,8.18
2022-10-12T00:49:59.937Z,7.32
2022-10-12T00:56:50.604Z,10.45
2022-10-12T01:03:36.524Z,8.35
2022-10-12T01:10:22.502Z,11.05
2022-10-12T01:17:25.247Z,11.87
2022-10-12T01:24:42.516Z,8.27
2022-10-12T01:31:37.642Z,8.27
2022-10-12T01:38:46.302Z,13.60
2022-10-12T01:45:31.653Z,8.50
2022-10-12T01:52:31.820Z,9.32
2022-10-12T01:59:24.799Z,8.98
2022-10-12T02:06:14.388Z,9.90
2022-10-12T02:13:10.110Z,9.63
2022-10-12T02:20:00.812Z,9.27
2022-10-12T02:26:50.980Z,9.48
2022-10-12T02:33:45.456Z,8.15
2022-10-12T02:40:39.328Z,8.68
2022-10-12T03:01:17.018Z,12.30
2022-10-12T03:08:02.538Z,9.70
2022-10-12T03:14:47.888Z,8.93
2022-10-12T03:21:35.867Z,9.65
2022-10-12T03:28:21.489Z,8.77
2022-10-12T03:35:07.082Z,8.82
2022-10-12T03:41:55.046Z,13.30
2022-10-12T03:48:40.601Z,9.40
2022-10-12T03:55:26.250Z,9.32
2022-10-12T04:02:16.830Z,9.43
2022-10-12T04:09:02.708Z,9.60
2022-10-12T04:15:48.145Z,12.13
2022-10-12T04:22:36.440Z,8.75
2022-10-12T04:29:22.210Z,9.52
2022-10-12T04:36:08.171Z,9.60
2022-10-12T04:42:56.230Z,10.03
2022-10-12T04:49:41.630Z,8.75
2022-10-12T04:56:26.984Z,8.85
2022-10-12T05:03:14.943Z,9.43
2022-10-12T05:10:00.310Z,8.95
2022-10-12T05:16:49.571Z,9.35
2022-10-12T05:23:37.549Z,9.68
2022-10-12T05:30:22.909Z,9.65
2022-10-12T05:37:08.458Z,10.13
2022-10-12T05:43:56.476Z,9.95
2022-10-12T05:50:41.821Z,13.82
2022-10-12T05:57:27.260Z,9.70
2022-10-12T06:04:15.388Z,10.45
2022-10-12T06:11:00.923Z,9.85
2022-10-12T06:17:46.276Z,9.40
2022-10-12T06:24:34.282Z,12.45
2022-10-12T06:31:19.640Z,9.73
2022-10-12T06:38:05.704Z,9.50
2022-10-12T06:44:53.882Z,10.18
2022-10-12T06:51:39.413Z,10.05
2022-10-12T06:58:24.783Z,12.88
2022-10-12T07:05:13.569Z,12.05
2022-10-12T07:11:59.264Z,11.20
2022-10-12T07:18:44.713Z,11.20
2022-10-12T07:25:33.231Z,11.07
2022-10-12T07:32:18.816Z,11.88
2022-10-12T07:39:05.556Z,14.93
2022-10-12T07:45:53.613Z,11.48
2022-10-12T07:52:39.268Z,12.73
2022-10-12T07:59:25.038Z,11.65
2022-10-12T08:06:18.943Z,12.55
2022-10-12T08:13:04.370Z,15.82
2022-10-12T08:19:49.801Z,11.27
2022-10-12T08:26:37.807Z,12.02
2022-10-12T08:33:23.824Z,11.23
2022-10-12T08:40:12.356Z,11.73
2022-10-12T08:47:06.057Z,11.38
2022-10-12T08:53:57.386Z,12.07
2022-10-12T09:00:42.813Z,11.82
2022-10-12T09:07:34.884Z,10.30
2022-10-12T09:14:25.969Z,10.25
2022-10-12T09:21:16.832Z,12.50
2022-10-12T09:28:18.426Z,11.10
2022-10-12T09:35:04.187Z,12.05
2022-10-12T09:41:51.620Z,14.27
2022-10-12T09:48:40.540Z,13.38
2022-10-12T09:55:30.746Z,11.95
2022-10-12T10:02:20.748Z,11.50
2022-10-12T10:09:16.084Z,12.85
2022-10-12T10:16:08.523Z,10.02
2022-10-12T10:22:53.901Z,11.35
2022-10-12T10:29:45.445Z,11.85
2022-10-12T10:36:31.609Z,10.63
2022-10-12T10:43:27.537Z,14.50
2022-10-12T10:50:29.664Z,11.63
2022-10-12T10:57:21.213Z,11.00
2022-10-12T11:04:11.429Z,12.07
2022-10-12T11:11:05.095Z,14.02
2022-10-12T11:17:55.235Z,11.20
2022-10-12T11:24:48.375Z,12.60
2022-10-12T11:31:43.001Z,12.70
2022-10-12T11:38:34.869Z,13.38
2022-10-12T11:45:27.635Z,15.68
2022-10-12T11:52:16.110Z,15.40
2022-10-12T11:59:08.156Z,12.45
2022-10-12T12:05:53.516Z,12.02
2022-10-12T12:13:22.713Z,18.10
2022-10-12T12:20:58.754Z,13.65
2022-10-12T12:27:50.424Z,16.92
2022-10-12T12:34:36.301Z,15.52
2022-10-12T12:41:23.935Z,16.73
2022-10-12T12:48:14.413Z,20.80
2022-10-12T12:55:46.142Z,19.38
2022-10-12T13:03:21.398Z,15.23
2022-10-12T13:10:42.294Z,18.23
2022-10-12T13:17:53.684Z,14.30
2022-10-12T13:24:50.232Z,19.80
2022-10-12T13:38:29.763Z,15.43
2022-10-12T13:45:20.207Z,16.25
2022-10-12T13:52:31.891Z,20.17
2022-10-12T13:59:23.272Z,19.02
2022-10-12T14:06:09.797Z,16.77
2022-10-12T14:12:59.558Z,16.42
2022-10-12T14:19:51.470Z,16.65
2022-10-12T14:26:42.612Z,19.65
2022-10-12T14:33:31.678Z,18.65
2022-10-12T14:40:35.932Z,24.65
2022-10-12T14:47:25.627Z,16.92
2022-10-12T14:54:15.714Z,21.85
2022-10-12T15:01:01.194Z,17.13
2022-10-12T15:07:47.616Z,21.37
2022-10-12T15:14:35.654Z,19.55
2022-10-12T15:21:22.054Z,17.20
2022-10-12T15:28:08.867Z,14.07
2022-10-12T15:34:56.808Z,18.02
2022-10-12T15:41:42.436Z,19.48
2022-10-12T15:48:28.680Z,17.20
2022-10-12T16:02:13.037Z,15.15
2022-10-12T16:08:58.452Z,14.15
2022-10-12T16:15:47.287Z,22.80
2022-10-12T16:22:32.872Z,16.88
2022-10-12T16:29:18.269Z,19.95
2022-10-12T16:36:13.520Z,16.50
2022-10-12T16:42:59.131Z,20.65
2022-10-12T16:49:44.890Z,16.50
2022-10-12T16:56:37.087Z,15.83
2022-10-12T17:03:25.046Z,24.35
2022-10-12T17:10:11.902Z,19.08
2022-10-12T17:17:00.173Z,24.85
2022-10-12T17:23:46.257Z,26.65
2022-10-12T17:30:31.707Z,21.43
2022-10-12T17:37:21.202Z,21.70
2022-10-12T17:44:06.742Z,17.95
2022-10-12T17:50:52.694Z,21.77
2022-10-12T17:57:40.804Z,19.50
2022-10-12T18:04:26.220Z,20.02
2022-10-12T18:11:11.925Z,15.77
2022-10-12T18:17:59.866Z,28.47
2022-10-12T18:24:45.329Z,17.10
2022-10-12T18:31:32.245Z,21.20
2022-10-12T18:38:20.544Z,28.05
2022-10-12T18:45:06.522Z,16.80
2022-10-12T18:51:53.033Z,16.02
2022-10-12T18:58:42.024Z,20.42
2022-10-12T19:05:27.769Z,16.63
2022-10-12T19:12:16.787Z,14.73
2022-10-12T19:19:07.527Z,14.23
2022-10-12T19:25:52.889Z,18.95
2022-10-12T19:32:38.269Z,19.33
2022-10-12T19:39:27.361Z,19.30
2022-10-12T19:46:15.735Z,23.45
2022-10-12T19:53:01.073Z,21.20
2022-10-12T19:59:49.033Z,20.25
2022-10-12T20:06:34.415Z,20.48
2022-10-12T20:13:19.769Z,18.63
2022-10-12T20:20:09.087Z,16.23
2022-10-12T20:26:54.465Z,14.98
2022-10-12T20:33:42.264Z,18.15
2022-10-12T20:40:30.920Z,15.50
2022-10-12T20:47:16.548Z,20.38
2022-10-12T20:54:03.062Z,19.50
2022-10-12T21:07:37.577Z,13.65
2022-10-12T21:14:26.322Z,14.77
2022-10-12T21:21:17.641Z,14.85
2022-10-12T21:28:02.979Z,13.75
2022-10-12T21:34:48.468Z,14.15
2022-10-12T21:41:36.400Z,15.27
2022-10-12T21:48:21.771Z,17.90
2022-10-12T21:55:08.283Z,19.80
2022-10-12T22:08:41.458Z,20.48
2022-10-12T22:15:31.715Z,19.30
2022-10-12T22:22:26.161Z,17.48
2022-10-12T22:29:12.064Z,14.38
2022-10-12T22:35:58.385Z,16.67
2022-10-12T22:42:46.325Z,16.63
2022-10-12T22:49:31.934Z,16.27
2022-10-12T22:56:20.010Z,15.02
2022-10-12T23:03:09.201Z,14.02
2022-10-12T23:09:54.584Z,16.17
2022-10-12T23:16:40.511Z,17.57
2022-10-12T23:23:28.473Z,21.48
2022-10-12T23:30:14.657Z,17.83
2022-10-12T23:37:00.118Z,14.20
2022-10-12T23:43:48.865Z,15.50
2022-10-12T23:50:34.273Z,15.73
2022-10-12T23:57:45.254Z,15.40
